sensor_id;sensor_type;location;lat;lon;timestamp;P1;durP1;ratioP1;P2;durP2;ratioP2
21754;SDS011;11039;50.028;19.938;2023-03-31T00:00:55;10.68;;;4.03;;
21754;SDS011;11039;50.028;19.938;2023-03-31T00:03:25;4.43;;;2.88;;
21754;SDS011;11039;50.028;19.938;2023-03-31T00:05:57;4.75;;;3.03;;
21754;SDS011;11039;50.028;19.938;2023-03-31T00:08:24;5.53;;;3.78;;
21754;SDS011;11039;50.028;19.938;2023-03-31T00:10:56;6.63;;;3.42;;
21754;SDS011;11039;50.028;19.938;2023-03-31T00:13:22;4.93;;;3.35;;
21754;SDS011;11039;50.028;19.938;2023-03-31T00:15:48;4.47;;;2.83;;
21754;SDS011;11039;50.028;19.938;2023-03-31T00:18:14;4.85;;;3.10;;
21754;SDS011;11039;50.028;19.938;2023-03-31T00:20:40;6.18;;;3.10;;
21754;SDS011;11039;50.028;19.938;2023-03-31T00:23:07;5.63;;;3.20;;
21754;SDS011;11039;50.028;19.938;2023-03-31T00:25:34;4.30;;;3.08;;
21754;SDS011;11039;50.028;19.938;2023-03-31T00:28:00;4.57;;;2.53;;
21754;SDS011;11039;50.028;19.938;2023-03-31T00:30:26;5.13;;;3.17;;
21754;SDS011;11039;50.028;19.938;2023-03-31T00:32:52;6.18;;;3.00;;
21754;SDS011;11039;50.028;19.938;2023-03-31T00:35:18;5.55;;;3.17;;
21754;SDS011;11039;50.028;19.938;2023-03-31T00:37:44;5.15;;;2.90;;
21754;SDS011;11039;50.028;19.938;2023-03-31T00:40:11;5.05;;;2.90;;
21754;SDS011;11039;50.028;19.938;2023-03-31T00:42:40;4.25;;;2.78;;
21754;SDS011;11039;50.028;19.938;2023-03-31T00:47:42;4.25;;;2.92;;
21754;SDS011;11039;50.028;19.938;2023-03-31T00:50:19;3.92;;;3.00;;
21754;SDS011;11039;50.028;19.938;2023-03-31T00:52:46;4.30;;;2.97;;
21754;SDS011;11039;50.028;19.938;2023-03-31T00:55:14;4.53;;;2.83;;
21754;SDS011;11039;50.028;19.938;2023-03-31T00:57:41;4.57;;;3.13;;
21754;SDS011;11039;50.028;19.938;2023-03-31T01:00:09;4.43;;;2.72;;
21754;SDS011;11039;50.028;19.938;2023-03-31T01:02:42;4.10;;;2.78;;
21754;SDS011;11039;50.028;19.938;2023-03-31T01:05:16;3.92;;;2.80;;
21754;SDS011;11039;50.028;19.938;2023-03-31T01:07:44;4.65;;;3.10;;
21754;SDS011;11039;50.028;19.938;2023-03-31T01:10:11;4.60;;;2.97;;
21754;SDS011;11039;50.028;19.938;2023-03-31T01:12:41;3.65;;;2.80;;
21754;SDS011;11039;50.028;19.938;2023-03-31T01:15:09;5.00;;;2.90;;
21754;SDS011;11039;50.028;19.938;2023-03-31T01:17:35;5.55;;;3.05;;
21754;SDS011;11039;50.028;19.938;2023-03-31T01:20:07;4.15;;;2.78;;
21754;SDS011;11039;50.028;19.938;2023-03-31T01:25:18;3.65;;;2.47;;
21754;SDS011;11039;50.028;19.938;2023-03-31T01:27:50;3.40;;;2.47;;
21754;SDS011;11039;50.028;19.938;2023-03-31T01:46:27;3.67;;;2.80;;
21754;SDS011;11039;50.028;19.938;2023-03-31T01:48:58;3.88;;;2.30;;
21754;SDS011;11039;50.028;19.938;2023-03-31T01:54:01;3.92;;;3.00;;
21754;SDS011;11039;50.028;19.938;2023-03-31T01:56:33;5.47;;;2.40;;
21754;SDS011;11039;50.028;19.938;2023-03-31T01:59:16;12.35;;;3.08;;
21754;SDS011;11039;50.028;19.938;2023-03-31T02:01:52;7.50;;;2.35;;
21754;SDS011;11039;50.028;19.938;2023-03-31T02:04:31;4.97;;;2.58;;
21754;SDS011;11039;50.028;19.938;2023-03-31T02:07:02;5.97;;;2.72;;
21754;SDS011;11039;50.028;19.938;2023-03-31T02:09:31;4.65;;;2.70;;
21754;SDS011;11039;50.028;19.938;2023-03-31T02:11:59;4.63;;;2.40;;
21754;SDS011;11039;50.028;19.938;2023-03-31T02:14:27;4.85;;;2.58;;
21754;SDS011;11039;50.028;19.938;2023-03-31T02:16:56;4.40;;;2.38;;
21754;SDS011;11039;50.028;19.938;2023-03-31T02:19:23;5.22;;;2.40;;
21754;SDS011;11039;50.028;19.938;2023-03-31T02:21:50;3.53;;;2.42;;
21754;SDS011;11039;50.028;19.938;2023-03-31T02:24:17;2.97;;;2.13;;
21754;SDS011;11039;50.028;19.938;2023-03-31T02:26:46;3.45;;;2.40;;
21754;SDS011;11039;50.028;19.938;2023-03-31T02:29:15;3.42;;;2.03;;
21754;SDS011;11039;50.028;19.938;2023-03-31T02:34:25;3.45;;;2.20;;
21754;SDS011;11039;50.028;19.938;2023-03-31T02:36:51;2.80;;;1.98;;
21754;SDS011;11039;50.028;19.938;2023-03-31T02:39:18;3.05;;;2.05;;
21754;SDS011;11039;50.028;19.938;2023-03-31T02:41:46;3.05;;;2.10;;
21754;SDS011;11039;50.028;19.938;2023-03-31T02:44:12;3.22;;;2.13;;
21754;SDS011;11039;50.028;19.938;2023-03-31T02:46:38;2.60;;;1.90;;
21754;SDS011;11039;50.028;19.938;2023-03-31T02:49:06;3.30;;;2.17;;
21754;SDS011;11039;50.028;19.938;2023-03-31T03:02:05;2.80;;;1.88;;
21754;SDS011;11039;50.028;19.938;2023-03-31T03:07:12;3.70;;;1.90;;
21754;SDS011;11039;50.028;19.938;2023-03-31T03:10:02;3.20;;;2.03;;
21754;SDS011;11039;50.028;19.938;2023-03-31T03:12:34;3.13;;;2.10;;
21754;SDS011;11039;50.028;19.938;2023-03-31T03:17:44;5.75;;;1.88;;
21754;SDS011;11039;50.028;19.938;2023-03-31T03:20:11;2.95;;;1.83;;
21754;SDS011;11039;50.028;19.938;2023-03-31T03:22:38;2.92;;;1.83;;
21754;SDS011;11039;50.028;19.938;2023-03-31T03:25:05;2.78;;;1.90;;
21754;SDS011;11039;50.028;19.938;2023-03-31T03:27:33;4.10;;;1.80;;
21754;SDS011;11039;50.028;19.938;2023-03-31T03:30:00;2.80;;;1.80;;
21754;SDS011;11039;50.028;19.938;2023-03-31T03:32:27;3.95;;;1.60;;
21754;SDS011;11039;50.028;19.938;2023-03-31T03:34:53;5.18;;;1.80;;
21754;SDS011;11039;50.028;19.938;2023-03-31T03:37:19;2.88;;;1.80;;
21754;SDS011;11039;50.028;19.938;2023-03-31T03:39:46;4.32;;;1.90;;
21754;SDS011;11039;50.028;19.938;2023-03-31T03:42:12;7.75;;;2.00;;
21754;SDS011;11039;50.028;19.938;2023-03-31T03:44:38;4.93;;;1.85;;
21754;SDS011;11039;50.028;19.938;2023-03-31T03:47:04;8.10;;;1.90;;
21754;SDS011;11039;50.028;19.938;2023-03-31T03:49:30;5.13;;;1.95;;
21754;SDS011;11039;50.028;19.938;2023-03-31T03:51:56;8.18;;;1.85;;
21754;SDS011;11039;50.028;19.938;2023-03-31T03:54:22;5.68;;;1.95;;
21754;SDS011;11039;50.028;19.938;2023-03-31T03:56:48;6.70;;;1.90;;
21754;SDS011;11039;50.028;19.938;2023-03-31T03:59:14;7.15;;;2.03;;
21754;SDS011;11039;50.028;19.938;2023-03-31T04:01:40;4.28;;;2.25;;
21754;SDS011;11039;50.028;19.938;2023-03-31T04:04:06;7.30;;;2.20;;
21754;SDS011;11039;50.028;19.938;2023-03-31T04:06:32;13.55;;;3.17;;
21754;SDS011;11039;50.028;19.938;2023-03-31T04:08:59;10.70;;;2.67;;
21754;SDS011;11039;50.028;19.938;2023-03-31T04:11:25;9.23;;;2.80;;
21754;SDS011;11039;50.028;19.938;2023-03-31T04:13:52;8.18;;;3.17;;
21754;SDS011;11039;50.028;19.938;2023-03-31T04:16:18;11.63;;;2.70;;
21754;SDS011;11039;50.028;19.938;2023-03-31T04:18:44;9.82;;;2.80;;
21754;SDS011;11039;50.028;19.938;2023-03-31T04:21:13;7.43;;;2.47;;
21754;SDS011;11039;50.028;19.938;2023-03-31T04:23:47;8.68;;;2.30;;
21754;SDS011;11039;50.028;19.938;2023-03-31T04:26:14;6.38;;;2.45;;
21754;SDS011;11039;50.028;19.938;2023-03-31T04:28:40;10.13;;;2.35;;
21754;SDS011;11039;50.028;19.938;2023-03-31T04:31:14;4.00;;;2.05;;
21754;SDS011;11039;50.028;19.938;2023-03-31T04:33:50;7.10;;;2.35;;
21754;SDS011;11039;50.028;19.938;2023-03-31T04:36:16;3.47;;;2.17;;
21754;SDS011;11039;50.028;19.938;2023-03-31T04:38:46;3.67;;;1.73;;
21754;SDS011;11039;50.028;19.938;2023-03-31T04:41:14;7.55;;;2.67;;
21754;SDS011;11039;50.028;19.938;2023-03-31T04:43:40;4.72;;;1.90;;
21754;SDS011;11039;50.028;19.938;2023-03-31T04:46:07;4.95;;;1.90;;
21754;SDS011;11039;50.028;19.938;2023-03-31T04:48:33;4.93;;;2.00;;
21754;SDS011;11039;50.028;19.938;2023-03-31T04:50:59;3.40;;;1.73;;
21754;SDS011;11039;50.028;19.938;2023-03-31T04:53:25;4.07;;;1.60;;
21754;SDS011;11039;50.028;19.938;2023-03-31T04:55:51;3.78;;;2.08;;
21754;SDS011;11039;50.028;19.938;2023-03-31T04:58:17;4.82;;;2.13;;
21754;SDS011;11039;50.028;19.938;2023-03-31T05:00:44;5.07;;;2.35;;
21754;SDS011;11039;50.028;19.938;2023-03-31T05:03:10;3.67;;;1.77;;
21754;SDS011;11039;50.028;19.938;2023-03-31T05:05:36;3.90;;;1.63;;
21754;SDS011;11039;50.028;19.938;2023-03-31T05:08:02;7.68;;;2.00;;
21754;SDS011;11039;50.028;19.938;2023-03-31T05:10:29;9.45;;;2.00;;
21754;SDS011;11039;50.028;19.938;2023-03-31T05:12:55;2.88;;;1.77;;
21754;SDS011;11039;50.028;19.938;2023-03-31T05:15:21;6.43;;;2.08;;
21754;SDS011;11039;50.028;19.938;2023-03-31T05:17:50;6.85;;;2.50;;
21754;SDS011;11039;50.028;19.938;2023-03-31T05:20:17;4.32;;;2.08;;
21754;SDS011;11039;50.028;19.938;2023-03-31T05:22:43;6.75;;;2.10;;
21754;SDS011;11039;50.028;19.938;2023-03-31T05:25:10;4.15;;;1.98;;
21754;SDS011;11039;50.028;19.938;2023-03-31T05:27:43;5.03;;;2.05;;
21754;SDS011;11039;50.028;19.938;2023-03-31T05:30:10;2.97;;;1.88;;
21754;SDS011;11039;50.028;19.938;2023-03-31T05:32:36;5.28;;;2.03;;
21754;SDS011;11039;50.028;19.938;2023-03-31T05:35:02;5.72;;;2.10;;
21754;SDS011;11039;50.028;19.938;2023-03-31T05:37:28;7.95;;;2.00;;
21754;SDS011;11039;50.028;19.938;2023-03-31T05:39:54;7.60;;;2.50;;
21754;SDS011;11039;50.028;19.938;2023-03-31T05:42:20;5.80;;;2.08;;
21754;SDS011;11039;50.028;19.938;2023-03-31T05:44:46;4.40;;;1.80;;
21754;SDS011;11039;50.028;19.938;2023-03-31T05:47:12;4.78;;;2.20;;
21754;SDS011;11039;50.028;19.938;2023-03-31T05:49:41;4.78;;;2.40;;
21754;SDS011;11039;50.028;19.938;2023-03-31T05:52:08;3.33;;;2.00;;
21754;SDS011;11039;50.028;19.938;2023-03-31T05:54:34;7.05;;;2.30;;
21754;SDS011;11039;50.028;19.938;2023-03-31T05:57:00;4.03;;;2.10;;
21754;SDS011;11039;50.028;19.938;2023-03-31T05:59:26;6.22;;;2.38;;
21754;SDS011;11039;50.028;19.938;2023-03-31T06:01:52;4.22;;;1.90;;
21754;SDS011;11039;50.028;19.938;2023-03-31T06:04:18;5.72;;;2.58;;
21754;SDS011;11039;50.028;19.938;2023-03-31T06:06:44;5.30;;;2.38;;
21754;SDS011;11039;50.028;19.938;2023-03-31T06:09:14;3.83;;;2.35;;
21754;SDS011;11039;50.028;19.938;2023-03-31T06:11:40;3.63;;;2.17;;
21754;SDS011;11039;50.028;19.938;2023-03-31T06:14:06;4.80;;;2.47;;
21754;SDS011;11039;50.028;19.938;2023-03-31T06:16:32;5.25;;;2.50;;
21754;SDS011;11039;50.028;19.938;2023-03-31T06:18:58;6.30;;;2.35;;
21754;SDS011;11039;50.028;19.938;2023-03-31T06:21:24;5.78;;;2.50;;
21754;SDS011;11039;50.028;19.938;2023-03-31T06:23:50;7.95;;;2.72;;
21754;SDS011;11039;50.028;19.938;2023-03-31T06:26:19;6.25;;;2.60;;
21754;SDS011;11039;50.028;19.938;2023-03-31T06:28:46;6.65;;;2.92;;
21754;SDS011;11039;50.028;19.938;2023-03-31T06:31:13;6.65;;;2.92;;
21754;SDS011;11039;50.028;19.938;2023-03-31T06:33:40;3.92;;;2.30;;
21754;SDS011;11039;50.028;19.938;2023-03-31T06:36:07;6.85;;;3.10;;
21754;SDS011;11039;50.028;19.938;2023-03-31T06:38:33;7.05;;;3.30;;
21754;SDS011;11039;50.028;19.938;2023-03-31T06:41:00;5.03;;;2.45;;
21754;SDS011;11039;50.028;19.938;2023-03-31T06:43:26;5.43;;;2.88;;
21754;SDS011;11039;50.028;19.938;2023-03-31T06:45:52;4.97;;;2.90;;
21754;SDS011;11039;50.028;19.938;2023-03-31T06:48:19;5.22;;;3.17;;
21754;SDS011;11039;50.028;19.938;2023-03-31T06:50:45;6.97;;;3.03;;
21754;SDS011;11039;50.028;19.938;2023-03-31T06:53:11;6.35;;;3.08;;
21754;SDS011;11039;50.028;19.938;2023-03-31T06:55:37;4.95;;;2.90;;
21754;SDS011;11039;50.028;19.938;2023-03-31T06:58:04;7.85;;;3.17;;
21754;SDS011;11039;50.028;19.938;2023-03-31T07:00:31;5.72;;;3.00;;
21754;SDS011;11039;50.028;19.938;2023-03-31T07:02:57;4.60;;;2.75;;
21754;SDS011;11039;50.028;19.938;2023-03-31T07:05:23;7.20;;;3.50;;
21754;SDS011;11039;50.028;19.938;2023-03-31T07:07:53;4.05;;;2.85;;
21754;SDS011;11039;50.028;19.938;2023-03-31T07:10:19;6.47;;;3.17;;
21754;SDS011;11039;50.028;19.938;2023-03-31T07:12:45;7.93;;;3.13;;
21754;SDS011;11039;50.028;19.938;2023-03-31T07:15:11;7.15;;;2.97;;
21754;SDS011;11039;50.028;19.938;2023-03-31T07:17:37;6.55;;;3.13;;
21754;SDS011;11039;50.028;19.938;2023-03-31T07:20:07;5.20;;;2.50;;
21754;SDS011;11039;50.028;19.938;2023-03-31T07:22:36;4.50;;;2.35;;
21754;SDS011;11039;50.028;19.938;2023-03-31T07:25:02;5.63;;;3.03;;
21754;SDS011;11039;50.028;19.938;2023-03-31T07:27:28;4.90;;;2.60;;
21754;SDS011;11039;50.028;19.938;2023-03-31T07:29:55;5.55;;;2.63;;
21754;SDS011;11039;50.028;19.938;2023-03-31T07:32:21;4.63;;;2.50;;
21754;SDS011;11039;50.028;19.938;2023-03-31T07:34:47;4.63;;;2.55;;
21754;SDS011;11039;50.028;19.938;2023-03-31T07:37:13;8.48;;;2.58;;
21754;SDS011;11039;50.028;19.938;2023-03-31T07:39:39;4.57;;;2.33;;
21754;SDS011;11039;50.028;19.938;2023-03-31T07:42:05;4.97;;;2.50;;
21754;SDS011;11039;50.028;19.938;2023-03-31T07:44:32;3.30;;;2.20;;
21754;SDS011;11039;50.028;19.938;2023-03-31T07:46:58;5.95;;;2.30;;
21754;SDS011;11039;50.028;19.938;2023-03-31T07:49:30;5.40;;;2.38;;
21754;SDS011;11039;50.028;19.938;2023-03-31T07:51:56;3.88;;;2.15;;
21754;SDS011;11039;50.028;19.938;2023-03-31T07:54:22;3.53;;;2.13;;
21754;SDS011;11039;50.028;19.938;2023-03-31T07:56:48;4.32;;;2.20;;
21754;SDS011;11039;50.028;19.938;2023-03-31T07:59:14;4.25;;;2.17;;
21754;SDS011;11039;50.028;19.938;2023-03-31T08:01:40;4.00;;;2.20;;
21754;SDS011;11039;50.028;19.938;2023-03-31T08:04:06;4.70;;;1.80;;
21754;SDS011;11039;50.028;19.938;2023-03-31T08:06:33;3.13;;;1.83;;
21754;SDS011;11039;50.028;19.938;2023-03-31T08:09:00;4.32;;;2.30;;
21754;SDS011;11039;50.028;19.938;2023-03-31T08:11:26;6.20;;;1.95;;
21754;SDS011;11039;50.028;19.938;2023-03-31T08:13:52;3.45;;;1.80;;
21754;SDS011;11039;50.028;19.938;2023-03-31T08:16:18;4.65;;;2.10;;
21754;SDS011;11039;50.028;19.938;2023-03-31T08:18:44;8.93;;;2.53;;
21754;SDS011;11039;50.028;19.938;2023-03-31T08:21:10;3.28;;;1.95;;
21754;SDS011;11039;50.028;19.938;2023-03-31T08:23:36;3.63;;;1.90;;
21754;SDS011;11039;50.028;19.938;2023-03-31T08:26:09;2.38;;;1.65;;
21754;SDS011;11039;50.028;19.938;2023-03-31T08:28:36;3.83;;;2.10;;
21754;SDS011;11039;50.028;19.938;2023-03-31T08:31:05;3.55;;;1.90;;
21754;SDS011;11039;50.028;19.938;2023-03-31T08:33:32;3.60;;;1.92;;
21754;SDS011;11039;50.028;19.938;2023-03-31T08:36:02;4.95;;;1.70;;
21754;SDS011;11039;50.028;19.938;2023-03-31T08:38:29;2.92;;;1.67;;
21754;SDS011;11039;50.028;19.938;2023-03-31T08:41:01;4.68;;;2.00;;
21754;SDS011;11039;50.028;19.938;2023-03-31T08:43:34;3.30;;;2.00;;
21754;SDS011;11039;50.028;19.938;2023-03-31T08:46:01;6.30;;;1.92;;
21754;SDS011;11039;50.028;19.938;2023-03-31T08:48:29;3.63;;;1.83;;
21754;SDS011;11039;50.028;19.938;2023-03-31T08:50:59;3.85;;;1.98;;
21754;SDS011;11039;50.028;19.938;2023-03-31T08:53:28;2.47;;;1.70;;
21754;SDS011;11039;50.028;19.938;2023-03-31T08:55:56;3.33;;;1.60;;
21754;SDS011;11039;50.028;19.938;2023-03-31T09:00:58;3.55;;;1.70;;
21754;SDS011;11039;50.028;19.938;2023-03-31T09:06:15;3.47;;;1.55;;
21754;SDS011;11039;50.028;19.938;2023-03-31T09:08:42;3.47;;;1.63;;
21754;SDS011;11039;50.028;19.938;2023-03-31T09:11:23;3.20;;;1.73;;
21754;SDS011;11039;50.028;19.938;2023-03-31T09:14:00;2.03;;;1.33;;
21754;SDS011;11039;50.028;19.938;2023-03-31T09:16:34;3.95;;;1.70;;
21754;SDS011;11039;50.028;19.938;2023-03-31T09:19:02;3.67;;;1.35;;
21754;SDS011;11039;50.028;19.938;2023-03-31T09:21:30;2.97;;;1.60;;
21754;SDS011;11039;50.028;19.938;2023-03-31T09:27:04;2.72;;;1.42;;
21754;SDS011;11039;50.028;19.938;2023-03-31T09:31:53;6.35;;;1.70;;
21754;SDS011;11039;50.028;19.938;2023-03-31T09:34:24;3.67;;;1.52;;
21754;SDS011;11039;50.028;19.938;2023-03-31T09:36:52;2.30;;;1.35;;
21754;SDS011;11039;50.028;19.938;2023-03-31T09:39:18;3.63;;;1.30;;
21754;SDS011;11039;50.028;19.938;2023-03-31T09:41:44;2.47;;;1.40;;
21754;SDS011;11039;50.028;19.938;2023-03-31T09:44:23;3.17;;;1.63;;
21754;SDS011;11039;50.028;19.938;2023-03-31T09:46:50;2.17;;;1.27;;
21754;SDS011;11039;50.028;19.938;2023-03-31T09:49:18;4.40;;;1.70;;
21754;SDS011;11039;50.028;19.938;2023-03-31T09:51:45;2.97;;;1.40;;
21754;SDS011;11039;50.028;19.938;2023-03-31T09:56:47;3.63;;;1.35;;
21754;SDS011;11039;50.028;19.938;2023-03-31T09:59:21;3.35;;;1.63;;
21754;SDS011;11039;50.028;19.938;2023-03-31T10:01:51;2.80;;;1.40;;
21754;SDS011;11039;50.028;19.938;2023-03-31T10:04:33;2.50;;;1.30;;
21754;SDS011;11039;50.028;19.938;2023-03-31T10:07:00;2.95;;;1.08;;
21754;SDS011;11039;50.028;19.938;2023-03-31T10:09:29;3.33;;;1.42;;
21754;SDS011;11039;50.028;19.938;2023-03-31T10:11:57;2.88;;;1.48;;
21754;SDS011;11039;50.028;19.938;2023-03-31T10:14:25;2.60;;;1.33;;
21754;SDS011;11039;50.028;19.938;2023-03-31T10:16:55;2.90;;;1.33;;
21754;SDS011;11039;50.028;19.938;2023-03-31T10:24:45;2.72;;;1.40;;
21754;SDS011;11039;50.028;19.938;2023-03-31T10:27:21;6.78;;;1.27;;
21754;SDS011;11039;50.028;19.938;2023-03-31T10:29:57;2.75;;;1.33;;
21754;SDS011;11039;50.028;19.938;2023-03-31T10:32:28;4.18;;;1.58;;
21754;SDS011;11039;50.028;19.938;2023-03-31T10:34:55;5.00;;;1.00;;
21754;SDS011;11039;50.028;19.938;2023-03-31T10:37:22;2.92;;;1.30;;
21754;SDS011;11039;50.028;19.938;2023-03-31T10:42:58;3.13;;;1.20;;
21754;SDS011;11039;50.028;19.938;2023-03-31T10:45:26;3.33;;;1.40;;
21754;SDS011;11039;50.028;19.938;2023-03-31T10:47:53;3.03;;;1.17;;
21754;SDS011;11039;50.028;19.938;2023-03-31T10:50:21;2.85;;;1.17;;
21754;SDS011;11039;50.028;19.938;2023-03-31T10:52:51;2.97;;;1.10;;
21754;SDS011;11039;50.028;19.938;2023-03-31T10:55:25;3.30;;;1.10;;
21754;SDS011;11039;50.028;19.938;2023-03-31T10:57:55;4.30;;;1.35;;
21754;SDS011;11039;50.028;19.938;2023-03-31T11:00:27;2.92;;;1.20;;
21754;SDS011;11039;50.028;19.938;2023-03-31T11:31:22;2.53;;;1.13;;
21754;SDS011;11039;50.028;19.938;2023-03-31T11:34:13;3.53;;;1.45;;
21754;SDS011;11039;50.028;19.938;2023-03-31T11:39:32;1.83;;;0.95;;
21754;SDS011;11039;50.028;19.938;2023-03-31T11:42:02;3.45;;;1.23;;
21754;SDS011;11039;50.028;19.938;2023-03-31T11:44:30;2.03;;;1.10;;
21754;SDS011;11039;50.028;19.938;2023-03-31T11:46:59;3.08;;;1.13;;
21754;SDS011;11039;50.028;19.938;2023-03-31T11:49:27;3.40;;;1.30;;
21754;SDS011;11039;50.028;19.938;2023-03-31T11:51:56;3.53;;;1.10;;
21754;SDS011;11039;50.028;19.938;2023-03-31T11:54:40;3.10;;;1.20;;
21754;SDS011;11039;50.028;19.938;2023-03-31T11:57:12;3.65;;;1.38;;
21754;SDS011;11039;50.028;19.938;2023-03-31T11:59:41;4.40;;;1.30;;
21754;SDS011;11039;50.028;19.938;2023-03-31T12:04:44;2.65;;;1.30;;
21754;SDS011;11039;50.028;19.938;2023-03-31T12:09:42;4.63;;;1.60;;
21754;SDS011;11039;50.028;19.938;2023-03-31T12:12:16;1.92;;;1.10;;
21754;SDS011;11039;50.028;19.938;2023-03-31T12:14:54;2.60;;;1.38;;
21754;SDS011;11039;50.028;19.938;2023-03-31T12:17:22;2.95;;;1.20;;
21754;SDS011;11039;50.028;19.938;2023-03-31T12:19:51;3.50;;;1.40;;
21754;SDS011;11039;50.028;19.938;2023-03-31T12:22:23;2.97;;;1.00;;
21754;SDS011;11039;50.028;19.938;2023-03-31T12:24:51;4.05;;;1.45;;
21754;SDS011;11039;50.028;19.938;2023-03-31T12:30:03;3.30;;;1.30;;
21754;SDS011;11039;50.028;19.938;2023-03-31T12:32:35;2.38;;;1.35;;
21754;SDS011;11039;50.028;19.938;2023-03-31T12:35:12;4.05;;;1.13;;
21754;SDS011;11039;50.028;19.938;2023-03-31T12:42:52;4.85;;;1.52;;
21754;SDS011;11039;50.028;19.938;2023-03-31T12:45:27;4.63;;;1.48;;
21754;SDS011;11039;50.028;19.938;2023-03-31T12:55:53;4.38;;;1.60;;
21754;SDS011;11039;50.028;19.938;2023-03-31T13:03:48;5.68;;;1.40;;
21754;SDS011;11039;50.028;19.938;2023-03-31T13:08:52;2.60;;;1.50;;
21754;SDS011;11039;50.028;19.938;2023-03-31T13:14:11;7.10;;;1.63;;
21754;SDS011;11039;50.028;19.938;2023-03-31T13:16:38;3.20;;;1.30;;
21754;SDS011;11039;50.028;19.938;2023-03-31T13:19:04;4.72;;;1.58;;
21754;SDS011;11039;50.028;19.938;2023-03-31T13:21:30;3.38;;;1.48;;
21754;SDS011;11039;50.028;19.938;2023-03-31T13:24:00;4.30;;;1.45;;
21754;SDS011;11039;50.028;19.938;2023-03-31T13:47:52;4.35;;;1.67;;
21754;SDS011;11039;50.028;19.938;2023-03-31T14:00:41;3.70;;;1.48;;
21754;SDS011;11039;50.028;19.938;2023-03-31T14:03:28;4.45;;;1.40;;
21754;SDS011;11039;50.028;19.938;2023-03-31T14:06:01;4.85;;;1.92;;
21754;SDS011;11039;50.028;19.938;2023-03-31T14:11:20;4.85;;;2.25;;
21754;SDS011;11039;50.028;19.938;2023-03-31T14:16:35;6.55;;;3.30;;
21754;SDS011;11039;50.028;19.938;2023-03-31T14:19:26;6.20;;;4.03;;
21754;SDS011;11039;50.028;19.938;2023-03-31T14:24:43;6.47;;;4.72;;
21754;SDS011;11039;50.028;19.938;2023-03-31T14:27:20;6.30;;;4.40;;
21754;SDS011;11039;50.028;19.938;2023-03-31T14:32:25;8.13;;;5.13;;
21754;SDS011;11039;50.028;19.938;2023-03-31T14:35:02;9.48;;;6.38;;
21754;SDS011;11039;50.028;19.938;2023-03-31T14:37:29;10.68;;;6.88;;
21754;SDS011;11039;50.028;19.938;2023-03-31T14:39:56;9.65;;;6.25;;
21754;SDS011;11039;50.028;19.938;2023-03-31T14:44:56;11.00;;;7.38;;
21754;SDS011;11039;50.028;19.938;2023-03-31T14:47:23;15.07;;;8.50;;
21754;SDS011;11039;50.028;19.938;2023-03-31T14:52:35;10.23;;;7.07;;
21754;SDS011;11039;50.028;19.938;2023-03-31T14:55:01;11.30;;;7.65;;
21754;SDS011;11039;50.028;19.938;2023-03-31T14:57:29;11.05;;;7.35;;
21754;SDS011;11039;50.028;19.938;2023-03-31T14:59:57;12.07;;;8.00;;
21754;SDS011;11039;50.028;19.938;2023-03-31T15:02:30;15.02;;;9.05;;
21754;SDS011;11039;50.028;19.938;2023-03-31T15:04:57;15.07;;;9.35;;
21754;SDS011;11039;50.028;19.938;2023-03-31T15:07:24;17.52;;;10.32;;
21754;SDS011;11039;50.028;19.938;2023-03-31T15:09:51;16.80;;;10.07;;
21754;SDS011;11039;50.028;19.938;2023-03-31T15:12:18;14.95;;;9.82;;
21754;SDS011;11039;50.028;19.938;2023-03-31T15:14:49;16.05;;;9.43;;
21754;SDS011;11039;50.028;19.938;2023-03-31T15:17:23;18.88;;;10.35;;
21754;SDS011;11039;50.028;19.938;2023-03-31T15:19:59;15.60;;;9.55;;
21754;SDS011;11039;50.028;19.938;2023-03-31T15:22:28;16.38;;;8.85;;
21754;SDS011;11039;50.028;19.938;2023-03-31T15:24:55;14.05;;;8.55;;
21754;SDS011;11039;50.028;19.938;2023-03-31T15:27:34;14.65;;;8.45;;
21754;SDS011;11039;50.028;19.938;2023-03-31T15:30:02;12.35;;;7.43;;
21754;SDS011;11039;50.028;19.938;2023-03-31T15:32:29;13.43;;;6.72;;
21754;SDS011;11039;50.028;19.938;2023-03-31T15:34:56;13.48;;;6.95;;
21754;SDS011;11039;50.028;19.938;2023-03-31T15:37:24;11.80;;;6.05;;
21754;SDS011;11039;50.028;19.938;2023-03-31T15:39:55;12.20;;;6.40;;
21754;SDS011;11039;50.028;19.938;2023-03-31T15:42:22;11.05;;;5.38;;
21754;SDS011;11039;50.028;19.938;2023-03-31T15:47:27;9.30;;;4.80;;
21754;SDS011;11039;50.028;19.938;2023-03-31T15:50:12;7.82;;;4.00;;
21754;SDS011;11039;50.028;19.938;2023-03-31T15:52:47;7.30;;;4.13;;
21754;SDS011;11039;50.028;19.938;2023-03-31T15:55:47;6.03;;;3.35;;
21754;SDS011;11039;50.028;19.938;2023-03-31T15:58:07;7.40;;;3.40;;
21754;SDS011;11039;50.028;19.938;2023-03-31T16:00:44;7.32;;;3.25;;
21754;SDS011;11039;50.028;19.938;2023-03-31T16:05:59;5.25;;;2.70;;
21754;SDS011;11039;50.028;19.938;2023-03-31T16:08:27;5.13;;;2.83;;
21754;SDS011;11039;50.028;19.938;2023-03-31T16:11:02;6.18;;;2.85;;
21754;SDS011;11039;50.028;19.938;2023-03-31T16:13:31;5.50;;;2.30;;
21754;SDS011;11039;50.028;19.938;2023-03-31T16:15:58;4.22;;;2.20;;
21754;SDS011;11039;50.028;19.938;2023-03-31T16:20:54;3.78;;;1.90;;
21754;SDS011;11039;50.028;19.938;2023-03-31T16:23:22;4.68;;;2.10;;
21754;SDS011;11039;50.028;19.938;2023-03-31T16:25:50;3.08;;;1.90;;
21754;SDS011;11039;50.028;19.938;2023-03-31T16:28:18;4.43;;;2.00;;
21754;SDS011;11039;50.028;19.938;2023-03-31T16:30:45;4.88;;;2.15;;
21754;SDS011;11039;50.028;19.938;2023-03-31T16:33:12;3.85;;;1.70;;
21754;SDS011;11039;50.028;19.938;2023-03-31T16:35:40;3.50;;;1.40;;
21754;SDS011;11039;50.028;19.938;2023-03-31T16:38:07;4.20;;;1.90;;
21754;SDS011;11039;50.028;19.938;2023-03-31T16:40:34;4.07;;;1.60;;
21754;SDS011;11039;50.028;19.938;2023-03-31T16:43:11;4.13;;;1.90;;
21754;SDS011;11039;50.028;19.938;2023-03-31T16:45:39;3.83;;;1.90;;
21754;SDS011;11039;50.028;19.938;2023-03-31T16:48:05;4.18;;;1.85;;
21754;SDS011;11039;50.028;19.938;2023-03-31T16:50:31;3.63;;;1.80;;
21754;SDS011;11039;50.028;19.938;2023-03-31T16:52:59;4.82;;;2.10;;
21754;SDS011;11039;50.028;19.938;2023-03-31T16:55:25;5.82;;;2.50;;
21754;SDS011;11039;50.028;19.938;2023-03-31T16:57:51;6.05;;;2.20;;
21754;SDS011;11039;50.028;19.938;2023-03-31T17:00:18;6.25;;;2.05;;
21754;SDS011;11039;50.028;19.938;2023-03-31T17:02:44;5.40;;;2.20;;
21754;SDS011;11039;50.028;19.938;2023-03-31T17:05:11;3.90;;;2.25;;
21754;SDS011;11039;50.028;19.938;2023-03-31T17:07:37;4.13;;;2.23;;
21754;SDS011;11039;50.028;19.938;2023-03-31T17:10:03;5.65;;;2.30;;
21754;SDS011;11039;50.028;19.938;2023-03-31T17:12:29;5.03;;;2.70;;
21754;SDS011;11039;50.028;19.938;2023-03-31T17:14:55;8.32;;;3.10;;
21754;SDS011;11039;50.028;19.938;2023-03-31T17:17:21;7.97;;;3.25;;
21754;SDS011;11039;50.028;19.938;2023-03-31T17:19:47;11.13;;;3.25;;
21754;SDS011;11039;50.028;19.938;2023-03-31T17:22:13;6.75;;;3.47;;
21754;SDS011;11039;50.028;19.938;2023-03-31T17:24:40;9.60;;;3.50;;
21754;SDS011;11039;50.028;19.938;2023-03-31T17:27:06;9.23;;;3.60;;
21754;SDS011;11039;50.028;19.938;2023-03-31T17:29:32;8.02;;;3.40;;
21754;SDS011;11039;50.028;19.938;2023-03-31T17:31:58;7.68;;;3.53;;
21754;SDS011;11039;50.028;19.938;2023-03-31T17:34:25;7.43;;;3.55;;
21754;SDS011;11039;50.028;19.938;2023-03-31T17:36:51;8.63;;;4.03;;
21754;SDS011;11039;50.028;19.938;2023-03-31T17:39:19;9.27;;;3.83;;
21754;SDS011;11039;50.028;19.938;2023-03-31T17:41:45;9.90;;;3.78;;
21754;SDS011;11039;50.028;19.938;2023-03-31T17:44:11;6.72;;;3.33;;